sensor_id;sensor_type;location;lat;lon;timestamp;temperature;humidity
28520;DHT22;15732;48.534;20.382;2023-04-16T00:01:56;7.90;99.90
28520;DHT22;15732;48.534;20.382;2023-04-16T00:04:27;7.90;99.90
28520;DHT22;15732;48.534;20.382;2023-04-16T00:06:55;7.90;99.90
28520;DHT22;15732;48.534;20.382;2023-04-16T00:09:26;7.90;99.90
28520;DHT22;15732;48.534;20.382;2023-04-16T00:11:57;7.90;99.90
28520;DHT22;15732;48.534;20.382;2023-04-16T00:14:29;7.90;99.90
28520;DHT22;15732;48.534;20.382;2023-04-16T00:16:56;7.90;99.90
28520;DHT22;15732;48.534;20.382;2023-04-16T00:19:23;7.80;99.90
28520;DHT22;15732;48.534;20.382;2023-04-16T00:21:51;7.80;99.90
28520;DHT22;15732;48.534;20.382;2023-04-16T00:24:18;7.70;99.90
28520;DHT22;15732;48.534;20.382;2023-04-16T00:26:45;7.70;99.90
28520;DHT22;15732;48.534;20.382;2023-04-16T00:29:12;7.60;99.90
28520;DHT22;15732;48.534;20.382;2023-04-16T00:31:40;7.60;99.90
28520;DHT22;15732;48.534;20.382;2023-04-16T00:34:07;7.60;99.90
28520;DHT22;15732;48.534;20.382;2023-04-16T00:36:38;7.60;99.90
28520;DHT22;15732;48.534;20.382;2023-04-16T00:39:06;7.60;99.90
28520;DHT22;15732;48.534;20.382;2023-04-16T00:41:33;7.70;99.90
28520;DHT22;15732;48.534;20.382;2023-04-16T00:44:01;7.60;99.90
28520;DHT22;15732;48.534;20.382;2023-04-16T00:46:32;7.50;99.90
28520;DHT22;15732;48.534;20.382;2023-04-16T00:49:00;7.60;99.90
28520;DHT22;15732;48.534;20.382;2023-04-16T00:51:28;7.60;99.90
28520;DHT22;15732;48.534;20.382;2023-04-16T00:53:56;7.50;99.90
28520;DHT22;15732;48.534;20.382;2023-04-16T00:56:24;7.50;99.90
28520;DHT22;15732;48.534;20.382;2023-04-16T00:58:55;7.50;99.90
28520;DHT22;15732;48.534;20.382;2023-04-16T01:01:22;7.40;99.90
28520;DHT22;15732;48.534;20.382;2023-04-16T01:03:50;7.30;99.90
28520;DHT22;15732;48.534;20.382;2023-04-16T01:06:17;7.20;99.90
28520;DHT22;15732;48.534;20.382;2023-04-16T01:08:45;7.20;99.90
28520;DHT22;15732;48.534;20.382;2023-04-16T01:11:13;7.10;99.90
28520;DHT22;15732;48.534;20.382;2023-04-16T01:13:44;7.20;99.90
28520;DHT22;15732;48.534;20.382;2023-04-16T01:16:11;7.10;99.90
28520;DHT22;15732;48.534;20.382;2023-04-16T01:18:39;7.20;99.90
28520;DHT22;15732;48.534;20.382;2023-04-16T01:21:05;7.10;99.90
28520;DHT22;15732;48.534;20.382;2023-04-16T01:23:36;7.00;99.90
28520;DHT22;15732;48.534;20.382;2023-04-16T01:26:04;7.00;99.90
28520;DHT22;15732;48.534;20.382;2023-04-16T01:28:31;7.00;99.90
28520;DHT22;15732;48.534;20.382;2023-04-16T01:30:59;7.00;99.90
28520;DHT22;15732;48.534;20.382;2023-04-16T01:33:26;7.00;99.90
28520;DHT22;15732;48.534;20.382;2023-04-16T01:35:54;7.00;99.90
28520;DHT22;15732;48.534;20.382;2023-04-16T01:38:21;7.00;99.90
28520;DHT22;15732;48.534;20.382;2023-04-16T01:40:48;6.90;99.90
28520;DHT22;15732;48.534;20.382;2023-04-16T01:43:16;7.00;99.90
28520;DHT22;15732;48.534;20.382;2023-04-16T01:45:43;6.90;99.90
28520;DHT22;15732;48.534;20.382;2023-04-16T01:48:11;6.90;99.90
28520;DHT22;15732;48.534;20.382;2023-04-16T01:50:42;6.90;99.90
28520;DHT22;15732;48.534;20.382;2023-04-16T01:53:10;6.90;99.90
28520;DHT22;15732;48.534;20.382;2023-04-16T01:55:37;6.80;99.90
28520;DHT22;15732;48.534;20.382;2023-04-16T01:58:08;6.80;99.90
28520;DHT22;15732;48.534;20.382;2023-04-16T02:00:36;6.80;99.90
28520;DHT22;15732;48.534;20.382;2023-04-16T02:03:04;6.70;99.90
28520;DHT22;15732;48.534;20.382;2023-04-16T02:05:32;6.70;99.90
28520;DHT22;15732;48.534;20.382;2023-04-16T02:07:59;6.80;99.90
28520;DHT22;15732;48.534;20.382;2023-04-16T02:10:26;6.70;99.90
28520;DHT22;15732;48.534;20.382;2023-04-16T02:12:58;6.80;99.90
28520;DHT22;15732;48.534;20.382;2023-04-16T02:15:29;6.80;99.90
28520;DHT22;15732;48.534;20.382;2023-04-16T02:17:56;6.80;99.90
28520;DHT22;15732;48.534;20.382;2023-04-16T02:20:24;6.80;99.90
28520;DHT22;15732;48.534;20.382;2023-04-16T02:22:51;6.80;99.90
28520;DHT22;15732;48.534;20.382;2023-04-16T02:25:19;6.80;99.90
28520;DHT22;15732;48.534;20.382;2023-04-16T02:27:46;6.70;99.90
28520;DHT22;15732;48.534;20.382;2023-04-16T02:30:13;6.60;99.90
28520;DHT22;15732;48.534;20.382;2023-04-16T02:32:41;6.60;99.90
28520;DHT22;15732;48.534;20.382;2023-04-16T02:35:12;6.60;99.90
28520;DHT22;15732;48.534;20.382;2023-04-16T02:37:40;6.60;99.90
28520;DHT22;15732;48.534;20.382;2023-04-16T02:40:09;6.50;99.90
28520;DHT22;15732;48.534;20.382;2023-04-16T02:42:38;6.50;99.90
28520;DHT22;15732;48.534;20.382;2023-04-16T02:45:07;6.50;99.90
28520;DHT22;15732;48.534;20.382;2023-04-16T02:47:37;6.50;99.90
28520;DHT22;15732;48.534;20.382;2023-04-16T02:50:08;6.50;99.90
28520;DHT22;15732;48.534;20.382;2023-04-16T02:52:35;6.60;99.90
28520;DHT22;15732;48.534;20.382;2023-04-16T02:55:06;6.50;99.90
28520;DHT22;15732;48.534;20.382;2023-04-16T02:57:35;6.60;99.90
28520;DHT22;15732;48.534;20.382;2023-04-16T03:00:03;6.60;99.90
28520;DHT22;15732;48.534;20.382;2023-04-16T03:02:32;6.50;99.90
28520;DHT22;15732;48.534;20.382;2023-04-16T03:05:03;6.60;99.90
28520;DHT22;15732;48.534;20.382;2023-04-16T03:07:30;6.60;99.90
28520;DHT22;15732;48.534;20.382;2023-04-16T03:10:02;6.60;99.90
28520;DHT22;15732;48.534;20.382;2023-04-16T03:12:30;6.60;99.90
28520;DHT22;15732;48.534;20.382;2023-04-16T03:14:57;6.60;99.90
28520;DHT22;15732;48.534;20.382;2023-04-16T03:17:29;6.60;99.90
28520;DHT22;15732;48.534;20.382;2023-04-16T03:19:56;6.60;99.90
28520;DHT22;15732;48.534;20.382;2023-04-16T03:22:23;6.60;99.90
28520;DHT22;15732;48.534;20.382;2023-04-16T03:24:55;6.60;99.90
28520;DHT22;15732;48.534;20.382;2023-04-16T03:27:26;6.60;99.90
28520;DHT22;15732;48.534;20.382;2023-04-16T03:29:58;6.60;99.90
28520;DHT22;15732;48.534;20.382;2023-04-16T03:32:25;6.60;99.90
28520;DHT22;15732;48.534;20.382;2023-04-16T03:34:53;6.70;99.90
28520;DHT22;15732;48.534;20.382;2023-04-16T03:37:20;6.60;99.90
28520;DHT22;15732;48.534;20.382;2023-04-16T03:39:51;6.70;99.90
28520;DHT22;15732;48.534;20.382;2023-04-16T03:42:19;6.70;99.90
28520;DHT22;15732;48.534;20.382;2023-04-16T03:44:46;6.70;99.90
28520;DHT22;15732;48.534;20.382;2023-04-16T03:47:13;6.70;99.90
28520;DHT22;15732;48.534;20.382;2023-04-16T03:49:40;6.70;99.90
28520;DHT22;15732;48.534;20.382;2023-04-16T03:52:07;6.70;99.90
28520;DHT22;15732;48.534;20.382;2023-04-16T03:54:39;6.70;99.90
28520;DHT22;15732;48.534;20.382;2023-04-16T03:57:10;6.70;99.90
28520;DHT22;15732;48.534;20.382;2023-04-16T03:59:41;6.70;99.90
28520;DHT22;15732;48.534;20.382;2023-04-16T04:02:09;6.70;99.90
28520;DHT22;15732;48.534;20.382;2023-04-16T04:04:36;6.70;99.90
28520;DHT22;15732;48.534;20.382;2023-04-16T04:07:04;6.80;99.90
28520;DHT22;15732;48.534;20.382;2023-04-16T04:09:31;6.70;99.90
28520;DHT22;15732;48.534;20.382;2023-04-16T04:11:59;6.70;99.90
28520;DHT22;15732;48.534;20.382;2023-04-16T04:14:30;6.70;99.90
28520;DHT22;15732;48.534;20.382;2023-04-16T04:16:58;6.70;99.90
28520;DHT22;15732;48.534;20.382;2023-04-16T04:19:25;6.70;99.90
28520;DHT22;15732;48.534;20.382;2023-04-16T04:21:56;6.70;99.90
28520;DHT22;15732;48.534;20.382;2023-04-16T04:24:28;6.70;99.90
28520;DHT22;15732;48.534;20.382;2023-04-16T04:26:55;6.70;99.90
28520;DHT22;15732;48.534;20.382;2023-04-16T04:29:23;6.70;99.90
28520;DHT22;15732;48.534;20.382;2023-04-16T04:31:54;6.80;99.90
28520;DHT22;15732;48.534;20.382;2023-04-16T04:34:22;6.80;99.90
28520;DHT22;15732;48.534;20.382;2023-04-16T04:36:49;6.80;99.90
28520;DHT22;15732;48.534;20.382;2023-04-16T04:39:20;6.80;99.90
28520;DHT22;15732;48.534;20.382;2023-04-16T04:41:52;6.70;99.90
28520;DHT22;15732;48.534;20.382;2023-04-16T04:44:23;6.70;99.90
28520;DHT22;15732;48.534;20.382;2023-04-16T04:46:51;6.70;99.90
28520;DHT22;15732;48.534;20.382;2023-04-16T04:49:21;6.70;99.90
28520;DHT22;15732;48.534;20.382;2023-04-16T04:51:48;6.70;99.90
28520;DHT22;15732;48.534;20.382;2023-04-16T04:54:20;6.80;99.90
28520;DHT22;15732;48.534;20.382;2023-04-16T04:56:51;6.90;99.90
28520;DHT22;15732;48.534;20.382;2023-04-16T04:59:20;6.90;99.90
28520;DHT22;15732;48.534;20.382;2023-04-16T05:01:51;6.90;99.90
28520;DHT22;15732;48.534;20.382;2023-04-16T05:04:18;7.00;99.90
28520;DHT22;15732;48.534;20.382;2023-04-16T05:06:49;7.10;99.90
28520;DHT22;15732;48.534;20.382;2023-04-16T05:09:17;7.10;99.90
28520;DHT22;15732;48.534;20.382;2023-04-16T05:11:48;7.20;99.90
28520;DHT22;15732;48.534;20.382;2023-04-16T05:14:16;7.20;99.90
28520;DHT22;15732;48.534;20.382;2023-04-16T05:16:43;7.20;99.90
28520;DHT22;15732;48.534;20.382;2023-04-16T05:19:10;7.30;99.90
28520;DHT22;15732;48.534;20.382;2023-04-16T05:21:37;7.30;99.90
28520;DHT22;15732;48.534;20.382;2023-04-16T05:24:05;7.30;99.90
28520;DHT22;15732;48.534;20.382;2023-04-16T05:26:32;7.40;99.90
28520;DHT22;15732;48.534;20.382;2023-04-16T05:28:59;7.40;99.90
28520;DHT22;15732;48.534;20.382;2023-04-16T05:31:26;7.60;99.90
28520;DHT22;15732;48.534;20.382;2023-04-16T05:33:54;7.60;99.90
28520;DHT22;15732;48.534;20.382;2023-04-16T05:36:21;7.60;99.90
28520;DHT22;15732;48.534;20.382;2023-04-16T05:38:49;7.70;99.90
28520;DHT22;15732;48.534;20.382;2023-04-16T05:41:16;7.80;99.90
28520;DHT22;15732;48.534;20.382;2023-04-16T05:43:44;7.80;99.90
28520;DHT22;15732;48.534;20.382;2023-04-16T05:46:11;7.80;99.90
28520;DHT22;15732;48.534;20.382;2023-04-16T05:48:38;7.90;99.90
28520;DHT22;15732;48.534;20.382;2023-04-16T05:51:06;7.90;99.90
28520;DHT22;15732;48.534;20.382;2023-04-16T05:53:33;8.00;99.90
28520;DHT22;15732;48.534;20.382;2023-04-16T05:56:00;8.10;99.90
28520;DHT22;15732;48.534;20.382;2023-04-16T05:58:27;8.20;99.90
28520;DHT22;15732;48.534;20.382;2023-04-16T06:00:55;8.30;99.90
28520;DHT22;15732;48.534;20.382;2023-04-16T06:03:22;8.30;99.90
28520;DHT22;15732;48.534;20.382;2023-04-16T06:05:50;8.40;99.90
28520;DHT22;15732;48.534;20.382;2023-04-16T06:08:17;8.40;99.90
28520;DHT22;15732;48.534;20.382;2023-04-16T06:10:46;8.50;99.90
28520;DHT22;15732;48.534;20.382;2023-04-16T06:13:17;8.50;99.90
28520;DHT22;15732;48.534;20.382;2023-04-16T06:15:44;8.50;99.90
28520;DHT22;15732;48.534;20.382;2023-04-16T06:18:12;8.60;99.90
28520;DHT22;15732;48.534;20.382;2023-04-16T06:20:44;8.80;99.90
28520;DHT22;15732;48.534;20.382;2023-04-16T06:23:11;8.90;99.90
28520;DHT22;15732;48.534;20.382;2023-04-16T06:25:39;9.00;99.90
28520;DHT22;15732;48.534;20.382;2023-04-16T06:28:10;9.00;99.90
28520;DHT22;15732;48.534;20.382;2023-04-16T06:30:37;9.10;99.90
28520;DHT22;15732;48.534;20.382;2023-04-16T06:33:04;9.20;99.90
28520;DHT22;15732;48.534;20.382;2023-04-16T06:35:35;9.30;99.90
28520;DHT22;15732;48.534;20.382;2023-04-16T06:38:03;9.40;99.90
28520;DHT22;15732;48.534;20.382;2023-04-16T06:40:34;9.40;99.90
28520;DHT22;15732;48.534;20.382;2023-04-16T06:43:03;9.60;99.90
28520;DHT22;15732;48.534;20.382;2023-04-16T06:45:34;9.80;99.90
28520;DHT22;15732;48.534;20.382;2023-04-16T06:48:02;9.80;99.90
28520;DHT22;15732;48.534;20.382;2023-04-16T06:50:30;10.00;99.90
28520;DHT22;15732;48.534;20.382;2023-04-16T06:53:01;10.10;99.90
28520;DHT22;15732;48.534;20.382;2023-04-16T06:55:32;10.10;99.90
28520;DHT22;15732;48.534;20.382;2023-04-16T06:58:03;10.20;99.90
28520;DHT22;15732;48.534;20.382;2023-04-16T07:00:31;10.20;99.90
28520;DHT22;15732;48.534;20.382;2023-04-16T07:03:00;10.30;99.90
28520;DHT22;15732;48.534;20.382;2023-04-16T07:05:27;10.30;99.90
28520;DHT22;15732;48.534;20.382;2023-04-16T07:07:54;10.50;99.90
28520;DHT22;15732;48.534;20.382;2023-04-16T07:10:23;10.50;99.90
28520;DHT22;15732;48.534;20.382;2023-04-16T07:12:54;10.50;99.90
28520;DHT22;15732;48.534;20.382;2023-04-16T07:15:25;10.50;99.90
28520;DHT22;15732;48.534;20.382;2023-04-16T07:17:53;10.60;99.90
28520;DHT22;15732;48.534;20.382;2023-04-16T07:20:19;10.70;99.90
28520;DHT22;15732;48.534;20.382;2023-04-16T07:22:47;10.80;99.90
28520;DHT22;15732;48.534;20.382;2023-04-16T07:25:14;10.80;99.90
28520;DHT22;15732;48.534;20.382;2023-04-16T07:27:45;10.90;99.90
28520;DHT22;15732;48.534;20.382;2023-04-16T07:30:13;11.00;99.90
28520;DHT22;15732;48.534;20.382;2023-04-16T07:32:40;11.10;99.90
28520;DHT22;15732;48.534;20.382;2023-04-16T07:35:08;11.20;99.90
28520;DHT22;15732;48.534;20.382;2023-04-16T07:37:35;11.30;99.90
28520;DHT22;15732;48.534;20.382;2023-04-16T07:40:02;11.40;99.90
28520;DHT22;15732;48.534;20.382;2023-04-16T07:42:30;11.40;99.90
28520;DHT22;15732;48.534;20.382;2023-04-16T07:44:58;11.50;99.90
28520;DHT22;15732;48.534;20.382;2023-04-16T07:47:29;11.60;99.90
28520;DHT22;15732;48.534;20.382;2023-04-16T07:50:00;11.70;99.90
28520;DHT22;15732;48.534;20.382;2023-04-16T07:52:31;11.80;99.90
28520;DHT22;15732;48.534;20.382;2023-04-16T07:54:59;11.90;99.90
28520;DHT22;15732;48.534;20.382;2023-04-16T07:57:30;11.90;99.90
28520;DHT22;15732;48.534;20.382;2023-04-16T07:59:57;12.00;99.90
28520;DHT22;15732;48.534;20.382;2023-04-16T08:02:27;12.10;99.90
28520;DHT22;15732;48.534;20.382;2023-04-16T08:04:54;12.20;99.90
28520;DHT22;15732;48.534;20.382;2023-04-16T08:07:22;12.40;99.90
28520;DHT22;15732;48.534;20.382;2023-04-16T08:09:51;12.50;99.90
28520;DHT22;15732;48.534;20.382;2023-04-16T08:12:22;12.50;99.90
28520;DHT22;15732;48.534;20.382;2023-04-16T08:14:53;12.60;99.90
28520;DHT22;15732;48.534;20.382;2023-04-16T08:17:21;12.60;99.90
28520;DHT22;15732;48.534;20.382;2023-04-16T08:19:52;12.70;99.90
28520;DHT22;15732;48.534;20.382;2023-04-16T08:22:19;12.70;99.90
28520;DHT22;15732;48.534;20.382;2023-04-16T08:24:51;12.80;99.90
28520;DHT22;15732;48.534;20.382;2023-04-16T08:27:18;12.90;99.90
28520;DHT22;15732;48.534;20.382;2023-04-16T08:29:45;13.00;99.90
28520;DHT22;15732;48.534;20.382;2023-04-16T08:32:16;13.10;99.90
28520;DHT22;15732;48.534;20.382;2023-04-16T08:34:48;13.10;99.90
28520;DHT22;15732;48.534;20.382;2023-04-16T08:37:14;13.20;99.90
28520;DHT22;15732;48.534;20.382;2023-04-16T08:39:42;13.30;99.90
28520;DHT22;15732;48.534;20.382;2023-04-16T08:42:32;13.30;99.90
28520;DHT22;15732;48.534;20.382;2023-04-16T08:45:13;13.30;99.90
28520;DHT22;15732;48.534;20.382;2023-04-16T08:47:56;13.40;99.90
28520;DHT22;15732;48.534;20.382;2023-04-16T08:50:25;13.40;99.90
28520;DHT22;15732;48.534;20.382;2023-04-16T08:52:59;13.40;99.90
28520;DHT22;15732;48.534;20.382;2023-04-16T08:55:50;13.50;99.90
28520;DHT22;15732;48.534;20.382;2023-04-16T08:58:22;13.50;99.90
28520;DHT22;15732;48.534;20.382;2023-04-16T09:00:52;13.60;99.90
28520;DHT22;15732;48.534;20.382;2023-04-16T09:03:20;13.70;99.90
28520;DHT22;15732;48.534;20.382;2023-04-16T09:05:48;13.80;99.90
28520;DHT22;15732;48.534;20.382;2023-04-16T09:08:20;13.80;99.90
28520;DHT22;15732;48.534;20.382;2023-04-16T09:10:52;13.90;99.90
28520;DHT22;15732;48.534;20.382;2023-04-16T09:13:20;14.00;99.90
28520;DHT22;15732;48.534;20.382;2023-04-16T09:15:55;14.10;99.90
28520;DHT22;15732;48.534;20.382;2023-04-16T09:18:23;14.10;99.90
28520;DHT22;15732;48.534;20.382;2023-04-16T09:20:51;14.20;99.90
28520;DHT22;15732;48.534;20.382;2023-04-16T09:23:18;14.20;99.90
28520;DHT22;15732;48.534;20.382;2023-04-16T09:25:45;14.30;99.90
28520;DHT22;15732;48.534;20.382;2023-04-16T09:28:38;14.30;99.90
28520;DHT22;15732;48.534;20.382;2023-04-16T09:31:17;14.30;99.90
28520;DHT22;15732;48.534;20.382;2023-04-16T09:34:07;14.40;99.90
28520;DHT22;15732;48.534;20.382;2023-04-16T09:36:35;14.40;99.90
28520;DHT22;15732;48.534;20.382;2023-04-16T09:39:06;14.40;99.90
28520;DHT22;15732;48.534;20.382;2023-04-16T09:41:44;14.50;99.90
28520;DHT22;15732;48.534;20.382;2023-04-16T09:44:16;14.60;99.90
28520;DHT22;15732;48.534;20.382;2023-04-16T09:46:43;14.70;99.90
28520;DHT22;15732;48.534;20.382;2023-04-16T09:49:15;14.70;99.90
28520;DHT22;15732;48.534;20.382;2023-04-16T09:51:45;14.70;99.90
28520;DHT22;15732;48.534;20.382;2023-04-16T09:54:12;14.80;99.90
28520;DHT22;15732;48.534;20.382;2023-04-16T09:56:44;14.80;99.90
28520;DHT22;15732;48.534;20.382;2023-04-16T09:59:19;14.90;99.90
28520;DHT22;15732;48.534;20.382;2023-04-16T10:01:47;14.90;99.90
28520;DHT22;15732;48.534;20.382;2023-04-16T10:04:19;14.90;99.90
28520;DHT22;15732;48.534;20.382;2023-04-16T10:07:03;15.00;99.90
28520;DHT22;15732;48.534;20.382;2023-04-16T10:09:31;15.10;99.90
28520;DHT22;15732;48.534;20.382;2023-04-16T10:12:02;15.20;99.90
28520;DHT22;15732;48.534;20.382;2023-04-16T10:14:29;15.20;99.90
28520;DHT22;15732;48.534;20.382;2023-04-16T10:16:56;15.30;99.90
28520;DHT22;15732;48.534;20.382;2023-04-16T10:19:28;15.30;99.90
28520;DHT22;15732;48.534;20.382;2023-04-16T10:21:57;15.30;99.90
28520;DHT22;15732;48.534;20.382;2023-04-16T10:24:29;15.30;99.90
28520;DHT22;15732;48.534;20.382;2023-04-16T10:26:57;15.30;99.90
28520;DHT22;15732;48.534;20.382;2023-04-16T10:29:29;15.40;99.90
28520;DHT22;15732;48.534;20.382;2023-04-16T10:31:57;15.50;99.90
28520;DHT22;15732;48.534;20.382;2023-04-16T10:34:25;15.50;99.90
28520;DHT22;15732;48.534;20.382;2023-04-16T10:36:57;15.50;99.90
28520;DHT22;15732;48.534;20.382;2023-04-16T10:39:27;15.60;99.90
28520;DHT22;15732;48.534;20.382;2023-04-16T10:42:10;15.60;99.90
28520;DHT22;15732;48.534;20.382;2023-04-16T10:44:39;15.60;99.90
28520;DHT22;15732;48.534;20.382;2023-04-16T10:47:11;15.70;99.90
28520;DHT22;15732;48.534;20.382;2023-04-16T10:49:42;15.70;99.90
28520;DHT22;15732;48.534;20.382;2023-04-16T10:52:13;15.80;99.90
28520;DHT22;15732;48.534;20.382;2023-04-16T10:54:47;15.80;99.90
28520;DHT22;15732;48.534;20.382;2023-04-16T10:57:19;15.80;99.90
28520;DHT22;15732;48.534;20.382;2023-04-16T10:59:47;15.80;99.90
28520;DHT22;15732;48.534;20.382;2023-04-16T11:02:18;15.90;99.90
28520;DHT22;15732;48.534;20.382;2023-04-16T11:04:47;15.90;99.90
28520;DHT22;15732;48.534;20.382;2023-04-16T11:07:30;16.00;99.90
28520;DHT22;15732;48.534;20.382;2023-04-16T11:10:05;16.00;99.90
28520;DHT22;15732;48.534;20.382;2023-04-16T11:12:41;16.00;99.90
28520;DHT22;15732;48.534;20.382;2023-04-16T11:15:15;16.10;99.90
28520;DHT22;15732;48.534;20.382;2023-04-16T11:17:49;16.10;99.90
28520;DHT22;15732;48.534;20.382;2023-04-16T11:20:40;16.10;99.90
28520;DHT22;15732;48.534;20.382;2023-04-16T11:23:10;16.20;99.90
28520;DHT22;15732;48.534;20.382;2023-04-16T11:25:38;16.20;99.90
28520;DHT22;15732;48.534;20.382;2023-04-16T11:28:06;16.20;99.90
28520;DHT22;15732;48.534;20.382;2023-04-16T11:30:34;16.20;99.90
28520;DHT22;15732;48.534;20.382;2023-04-16T11:33:07;16.20;99.90
28520;DHT22;15732;48.534;20.382;2023-04-16T11:35:39;16.20;99.90
28520;DHT22;15732;48.534;20.382;2023-04-16T11:38:07;16.20;99.90
28520;DHT22;15732;48.534;20.382;2023-04-16T11:40:34;16.20;99.90
28520;DHT22;15732;48.534;20.382;2023-04-16T11:43:03;16.20;99.90
28520;DHT22;15732;48.534;20.382;2023-04-16T11:45:31;16.20;99.90
28520;DHT22;15732;48.534;20.382;2023-04-16T11:47:58;16.30;99.90
28520;DHT22;15732;48.534;20.382;2023-04-16T11:50:30;16.30;99.90
28520;DHT22;15732;48.534;20.382;2023-04-16T11:53:05;16.40;99.90
28520;DHT22;15732;48.534;20.382;2023-04-16T11:55:42;16.40;99.90
28520;DHT22;15732;48.534;20.382;2023-04-16T11:58:13;16.40;99.90
28520;DHT22;15732;48.534;20.382;2023-04-16T12:00:43;16.40;99.90
28520;DHT22;15732;48.534;20.382;2023-04-16T12:03:10;16.40;99.90
28520;DHT22;15732;48.534;20.382;2023-04-16T12:05:39;16.50;99.90
28520;DHT22;15732;48.534;20.382;2023-04-16T12:08:11;16.50;99.90
28520;DHT22;15732;48.534;20.382;2023-04-16T12:10:54;16.50;99.90
28520;DHT22;15732;48.534;20.382;2023-04-16T12:13:22;16.60;99.90
28520;DHT22;15732;48.534;20.382;2023-04-16T12:15:50;16.60;99.90
28520;DHT22;15732;48.534;20.382;2023-04-16T12:18:19;16.60;99.90
28520;DHT22;15732;48.534;20.382;2023-04-16T12:20:51;16.60;99.90
28520;DHT22;15732;48.534;20.382;2023-04-16T12:25:52;16.70;99.90
28520;DHT22;15732;48.534;20.382;2023-04-16T12:28:34;16.70;99.90
28520;DHT22;15732;48.534;20.382;2023-04-16T12:31:04;16.70;99.90
28520;DHT22;15732;48.534;20.382;2023-04-16T12:33:31;16.70;99.90
28520;DHT22;15732;48.534;20.382;2023-04-16T12:35:58;16.80;99.90
28520;DHT22;15732;48.534;20.382;2023-04-16T12:38:27;16.80;99.90
28520;DHT22;15732;48.534;20.382;2023-04-16T12:40:54;16.80;99.90
28520;DHT22;15732;48.534;20.382;2023-04-16T12:43:22;16.80;99.90
28520;DHT22;15732;48.534;20.382;2023-04-16T12:45:50;16.80;99.90
28520;DHT22;15732;48.534;20.382;2023-04-16T12:48:21;16.80;99.90
28520;DHT22;15732;48.534;20.382;2023-04-16T12:50:51;16.80;99.90
28520;DHT22;15732;48.534;20.382;2023-04-16T12:53:23;16.80;99.90
28520;DHT22;15732;48.534;20.382;2023-04-16T12:55:50;16.80;99.90
28520;DHT22;15732;48.534;20.382;2023-04-16T12:58:18;16.90;99.90
28520;DHT22;15732;48.534;20.382;2023-04-16T13:00:45;16.80;99.90
28520;DHT22;15732;48.534;20.382;2023-04-16T13:03:13;16.80;99.90
28520;DHT22;15732;48.534;20.382;2023-04-16T13:05:40;16.80;99.90
28520;DHT22;15732;48.534;20.382;2023-04-16T13:08:08;16.80;99.90
28520;DHT22;15732;48.534;20.382;2023-04-16T13:10:36;16.90;99.90
28520;DHT22;15732;48.534;20.382;2023-04-16T13:13:04;16.90;99.90
28520;DHT22;15732;48.534;20.382;2023-04-16T13:15:32;16.90;99.90
28520;DHT22;15732;48.534;20.382;2023-04-16T13:17:59;16.90;99.90
28520;DHT22;15732;48.534;20.382;2023-04-16T13:20:27;16.90;99.90
28520;DHT22;15732;48.534;20.382;2023-04-16T13:22:54;16.90;99.90
28520;DHT22;15732;48.534;20.382;2023-04-16T13:25:35;16.90;99.90
28520;DHT22;15732;48.534;20.382;2023-04-16T13:28:03;16.90;99.90
28520;DHT22;15732;48.534;20.382;2023-04-16T13:30:31;16.90;99.90
28520;DHT22;15732;48.534;20.382;2023-04-16T13:32:59;16.90;99.90
28520;DHT22;15732;48.534;20.382;2023-04-16T13:35:26;16.90;99.90
28520;DHT22;15732;48.534;20.382;2023-04-16T13:37:53;16.90;99.90
28520;DHT22;15732;48.534;20.382;2023-04-16T13:40:21;16.90;99.90
28520;DHT22;15732;48.534;20.382;2023-04-16T13:42:49;16.90;99.90
28520;DHT22;15732;48.534;20.382;2023-04-16T13:45:20;17.00;99.90
28520;DHT22;15732;48.534;20.382;2023-04-16T13:47:55;17.00;99.90
28520;DHT22;15732;48.534;20.382;2023-04-16T13:50:27;17.00;99.90
28520;DHT22;15732;48.534;20.382;2023-04-16T13:52:54;17.00;99.90
28520;DHT22;15732;48.534;20.382;2023-04-16T13:55:26;17.00;99.90
28520;DHT22;15732;48.534;20.382;2023-04-16T13:57:57;17.00;99.90
28520;DHT22;15732;48.534;20.382;2023-04-16T14:00:29;17.00;99.90
28520;DHT22;15732;48.534;20.382;2023-04-16T14:02:59;17.00;99.90
28520;DHT22;15732;48.534;20.382;2023-04-16T14:05:35;17.00;99.90
28520;DHT22;15732;48.534;20.382;2023-04-16T14:08:02;17.00;99.90
28520;DHT22;15732;48.534;20.382;2023-04-16T14:10:30;17.00;99.90
28520;DHT22;15732;48.534;20.382;2023-04-16T14:12:58;17.00;99.90
28520;DHT22;15732;48.534;20.382;2023-04-16T14:15:25;17.00;99.90
28520;DHT22;15732;48.534;20.382;2023-04-16T14:17:58;17.00;99.90
28520;DHT22;15732;48.534;20.382;2023-04-16T14:20:26;17.00;99.90
28520;DHT22;15732;48.534;20.382;2023-04-16T14:22:54;17.00;99.90
28520;DHT22;15732;48.534;20.382;2023-04-16T14:25:22;17.00;99.90
28520;DHT22;15732;48.534;20.382;2023-04-16T14:27:49;17.10;99.90
28520;DHT22;15732;48.534;20.382;2023-04-16T14:30:17;17.00;99.90
28520;DHT22;15732;48.534;20.382;2023-04-16T14:32:44;17.00;99.90
28520;DHT22;15732;48.534;20.382;2023-04-16T14:35:16;17.10;99.90
28520;DHT22;15732;48.534;20.382;2023-04-16T14:37:43;17.00;99.90
28520;DHT22;15732;48.534;20.382;2023-04-16T14:40:15;17.00;99.90
28520;DHT22;15732;48.534;20.382;2023-04-16T14:42:42;17.00;99.90
28520;DHT22;15732;48.534;20.382;2023-04-16T14:45:13;17.00;99.90
28520;DHT22;15732;48.534;20.382;2023-04-16T14:47:44;17.00;99.90
28520;DHT22;15732;48.534;20.382;2023-04-16T14:50:13;17.10;99.90
28520;DHT22;15732;48.534;20.382;2023-04-16T14:52:40;17.20;99.90
28520;DHT22;15732;48.534;20.382;2023-04-16T14:55:08;17.20;99.90
28520;DHT22;15732;48.534;20.382;2023-04-16T14:57:39;17.20;99.90
28520;DHT22;15732;48.534;20.382;2023-04-16T15:00:09;17.20;99.90
28520;DHT22;15732;48.534;20.382;2023-04-16T15:02:37;17.20;99.90
28520;DHT22;15732;48.534;20.382;2023-04-16T15:05:05;17.10;99.90
28520;DHT22;15732;48.534;20.382;2023-04-16T15:07:35;17.10;99.90
28520;DHT22;15732;48.534;20.382;2023-04-16T15:10:03;17.00;99.90
28520;DHT22;15732;48.534;20.382;2023-04-16T15:12:30;17.00;99.90
28520;DHT22;15732;48.534;20.382;2023-04-16T15:14:58;16.90;99.90
28520;DHT22;15732;48.534;20.382;2023-04-16T15:17:25;16.90;99.90
28520;DHT22;15732;48.534;20.382;2023-04-16T15:19:52;16.90;99.90
28520;DHT22;15732;48.534;20.382;2023-04-16T15:22:20;16.80;99.90
28520;DHT22;15732;48.534;20.382;2023-04-16T15:24:47;16.80;99.90
28520;DHT22;15732;48.534;20.382;2023-04-16T15:27:19;16.80;99.90
28520;DHT22;15732;48.534;20.382;2023-04-16T15:29:46;16.80;99.90
28520;DHT22;15732;48.534;20.382;2023-04-16T15:32:15;16.80;99.90
28520;DHT22;15732;48.534;20.382;2023-04-16T15:34:42;16.80;99.90
28520;DHT22;15732;48.534;20.382;2023-04-16T15:37:15;16.80;99.90
28520;DHT22;15732;48.534;20.382;2023-04-16T15:39:42;16.80;99.90